createdAt,value
2022-09-02T00:01:41.382Z,1.00
2022-09-02T00:04:27.258Z,1.00
2022-09-02T00:06:55.179Z,1.10
2022-09-02T00:09:24.572Z,1.00
2022-09-02T00:11:54.478Z,1.10
2022-09-02T00:14:26.080Z,0.83
2022-09-02T00:16:53.488Z,1.07
2022-09-02T00:19:24.664Z,0.93
2022-09-02T00:21:54.195Z,1.23
2022-09-02T00:24:22.549Z,1.20
2022-09-02T00:26:50.028Z,1.07
2022-09-02T00:29:17.585Z,1.07
2022-09-02T00:31:46.236Z,1.02
2022-09-02T00:34:13.560Z,1.30
2022-09-02T00:36:41.566Z,1.10
2022-09-02T00:39:09.075Z,0.90
2022-09-02T00:41:42.401Z,1.00
2022-09-02T00:44:16.165Z,1.30
2022-09-02T00:46:43.375Z,1.20
2022-09-02T00:49:18.389Z,1.20
2022-09-02T00:51:50.445Z,1.00
2022-09-02T00:54:20.129Z,0.93
2022-09-02T00:56:49.893Z,1.27
2022-09-02T00:59:44.048Z,0.90
2022-09-02T01:02:11.936Z,1.33
2022-09-02T01:04:39.174Z,1.77
2022-09-02T01:07:06.835Z,1.60
2022-09-02T01:09:34.082Z,1.70
2022-09-02T01:12:03.516Z,1.30
2022-09-02T01:14:31.414Z,1.37
2022-09-02T01:17:00.807Z,1.57
2022-09-02T01:19:38.812Z,1.17
2022-09-02T01:22:24.732Z,1.07
2022-09-02T01:24:52.569Z,1.50
2022-09-02T01:27:22.587Z,1.10
2022-09-02T01:29:55.382Z,1.13
2022-09-02T01:32:24.277Z,1.30
2022-09-02T01:34:52.168Z,1.00
2022-09-02T01:37:20.581Z,1.30
2022-09-02T01:39:48.581Z,1.10
2022-09-02T01:42:15.947Z,1.07
2022-09-02T01:44:46.066Z,1.00
2022-09-02T01:47:16.919Z,1.10
2022-09-02T01:49:44.107Z,1.10
2022-09-02T01:52:11.184Z,1.23
2022-09-02T01:54:38.716Z,1.20
2022-09-02T01:57:05.879Z,1.10
2022-09-02T01:59:32.981Z,1.13
2022-09-02T02:02:00.435Z,1.43
2022-09-02T02:04:27.731Z,1.10
2022-09-02T02:06:55.180Z,1.20
2022-09-02T02:09:22.760Z,1.17
2022-09-02T02:11:50.014Z,1.10
2022-09-02T02:14:17.507Z,1.20
2022-09-02T02:16:45.280Z,1.37
2022-09-02T02:19:12.467Z,0.97
2022-09-02T02:21:39.861Z,0.90
2022-09-02T02:24:08.587Z,0.77
2022-09-02T02:26:36.867Z,1.10
2022-09-02T02:29:04.068Z,1.20
2022-09-02T02:31:31.364Z,1.17
2022-09-02T02:33:58.658Z,1.20
2022-09-02T02:36:26.057Z,1.30
2022-09-02T02:38:53.105Z,1.30
2022-09-02T02:41:20.885Z,0.90
2022-09-02T02:43:48.022Z,1.10
2022-09-02T02:46:16.188Z,1.20
2022-09-02T02:48:43.219Z,1.07
2022-09-02T02:51:10.471Z,1.07
2022-09-02T02:53:37.581Z,0.90
2022-09-02T02:56:05.900Z,1.03
2022-09-02T02:58:33.207Z,1.00
2022-09-02T03:01:01.103Z,1.20
2022-09-02T03:03:29.054Z,1.17
2022-09-02T03:05:56.101Z,1.00
2022-09-02T03:08:25.891Z,1.00
2022-09-02T03:10:54.333Z,1.03
2022-09-02T03:13:26.728Z,1.10
2022-09-02T03:15:57.086Z,0.97
2022-09-02T03:18:24.145Z,0.90
2022-09-02T03:20:52.064Z,0.80
2022-09-02T03:23:19.618Z,1.10
2022-09-02T03:25:46.791Z,1.00
2022-09-02T03:28:13.856Z,0.90
2022-09-02T03:30:42.139Z,1.20
2022-09-02T03:33:09.628Z,1.00
2022-09-02T03:35:41.118Z,0.97
2022-09-02T03:38:09.449Z,1.00
2022-09-02T03:40:37.053Z,0.90
2022-09-02T03:43:04.479Z,1.10
2022-09-02T03:45:32.025Z,1.00
2022-09-02T03:47:59.361Z,0.97
2022-09-02T03:50:30.263Z,1.17
2022-09-02T03:52:59.248Z,0.90
2022-09-02T03:55:27.605Z,1.03
2022-09-02T03:57:54.990Z,0.97
2022-09-02T04:00:24.654Z,0.90
2022-09-02T04:02:54.518Z,0.90
2022-09-02T04:05:22.864Z,1.00
2022-09-02T04:07:52.888Z,0.97
2022-09-02T04:10:22.090Z,0.90
2022-09-02T04:12:50.083Z,0.90
2022-09-02T04:15:17.784Z,0.80
2022-09-02T04:17:44.878Z,1.00
2022-09-02T04:20:13.664Z,1.00
2022-09-02T04:22:41.837Z,1.03
2022-09-02T04:25:10.240Z,1.27
2022-09-02T04:27:37.934Z,1.00
2022-09-02T04:30:06.852Z,1.30
2022-09-02T04:32:39.783Z,1.17
2022-09-02T04:35:07.944Z,1.17
2022-09-02T04:37:35.142Z,0.97
2022-09-02T04:40:04.664Z,0.97
2022-09-02T04:42:31.864Z,1.10
2022-09-02T04:44:59.457Z,0.90
2022-09-02T04:47:26.700Z,1.00
2022-09-02T04:49:57.411Z,1.30
2022-09-02T04:52:25.040Z,0.77
2022-09-02T04:54:52.751Z,1.10
2022-09-02T04:57:20.208Z,0.80
2022-09-02T04:59:51.406Z,1.10
2022-09-02T05:02:20.394Z,1.10
2022-09-02T05:04:47.644Z,1.00
2022-09-02T05:07:16.232Z,1.00
2022-09-02T05:09:43.294Z,0.80
2022-09-02T05:12:10.543Z,0.80
2022-09-02T05:14:37.808Z,0.80
2022-09-02T05:17:07.718Z,1.00
2022-09-02T05:19:35.160Z,1.03
2022-09-02T05:22:02.804Z,1.20
2022-09-02T05:24:29.959Z,1.20
2022-09-02T05:26:57.169Z,0.90
2022-09-02T05:29:24.668Z,1.17
2022-09-02T05:31:51.731Z,0.90
2022-09-02T05:34:19.312Z,0.83
2022-09-02T05:36:46.659Z,0.90
2022-09-02T05:39:13.995Z,0.90
2022-09-02T05:41:41.231Z,0.63
2022-09-02T05:44:08.546Z,0.90
2022-09-02T05:46:36.690Z,0.70
2022-09-02T05:49:08.508Z,0.70
2022-09-02T05:51:46.155Z,1.07
2022-09-02T05:54:24.325Z,0.57
2022-09-02T05:56:57.697Z,0.80
2022-09-02T05:59:27.301Z,0.70
2022-09-02T06:01:55.113Z,1.20
2022-09-02T06:04:23.038Z,0.87
2022-09-02T06:06:50.746Z,1.00
2022-09-02T06:09:21.935Z,0.70
2022-09-02T06:11:49.759Z,0.90
2022-09-02T06:14:19.039Z,0.80
2022-09-02T06:16:46.344Z,0.70
2022-09-02T06:19:17.705Z,0.80
2022-09-02T06:21:46.981Z,0.70
2022-09-02T06:24:14.370Z,0.60
2022-09-02T06:26:42.036Z,0.50
2022-09-02T06:29:10.376Z,0.43
2022-09-02T06:31:38.070Z,0.80
2022-09-02T06:34:05.534Z,0.50
2022-09-02T06:36:32.917Z,0.75
2022-09-02T06:39:00.956Z,0.50
2022-09-02T06:41:31.072Z,0.73
2022-09-02T06:44:01.451Z,0.50
2022-09-02T06:46:32.951Z,0.60
2022-09-02T06:49:00.358Z,0.60
2022-09-02T06:51:32.565Z,0.60
2022-09-02T06:54:00.724Z,0.50
2022-09-02T06:56:28.560Z,0.45
2022-09-02T06:58:56.290Z,0.63
2022-09-02T07:01:26.715Z,0.50
2022-09-02T07:04:12.643Z,0.50
2022-09-02T07:06:42.640Z,0.60
2022-09-02T07:09:12.263Z,0.60
2022-09-02T07:11:39.562Z,0.60
2022-09-02T07:14:07.278Z,0.40
2022-09-02T07:16:42.380Z,0.38
2022-09-02T07:19:14.012Z,0.40
2022-09-02T07:21:42.743Z,0.45
2022-09-02T07:24:12.318Z,0.30
2022-09-02T07:26:39.887Z,0.50
2022-09-02T07:29:09.170Z,0.35
2022-09-02T07:31:39.596Z,0.38
2022-09-02T07:34:07.351Z,0.25
2022-09-02T07:36:36.607Z,0.35
2022-09-02T07:39:06.654Z,0.30
2022-09-02T07:41:34.298Z,0.30
2022-09-02T07:44:01.588Z,0.22
2022-09-02T07:46:31.586Z,0.10
2022-09-02T07:49:05.892Z,0.20
2022-09-02T07:51:40.584Z,0.20
2022-09-02T07:54:10.318Z,0.10
2022-09-02T07:56:37.434Z,0.20
2022-09-02T07:59:04.771Z,0.17
2022-09-02T08:01:32.321Z,0.10
2022-09-02T08:04:01.591Z,0.10
2022-09-02T08:06:34.890Z,0.30
2022-09-02T08:09:06.871Z,0.20
2022-09-02T08:11:36.859Z,0.10
2022-09-02T08:14:04.116Z,0.20
2022-09-02T08:16:31.819Z,0.10
2022-09-02T08:19:00.598Z,0.28
2022-09-02T08:21:27.628Z,0.13
2022-09-02T08:23:55.829Z,0.10
2022-09-02T08:26:23.416Z,0.17
2022-09-02T08:28:50.520Z,0.10
2022-09-02T08:31:18.665Z,0.15
2022-09-02T08:33:46.086Z,0.10
2022-09-02T08:36:15.438Z,0.10
2022-09-02T08:38:43.554Z,0.20
2022-09-02T08:41:47.194Z,0.10
2022-09-02T08:44:20.797Z,0.13
2022-09-02T08:46:49.395Z,0.30
2022-09-02T08:49:26.628Z,0.10
2022-09-02T08:52:00.989Z,0.00
2022-09-02T08:54:36.701Z,0.15
2022-09-02T08:57:04.264Z,0.10
2022-09-02T08:59:32.214Z,0.00
2022-09-02T09:02:20.495Z,0.15
2022-09-02T09:05:16.615Z,0.20
2022-09-02T09:07:52.489Z,0.40
2022-09-02T09:10:41.090Z,0.00
2022-09-02T09:13:23.926Z,0.00
2022-09-02T09:16:11.041Z,0.10
2022-09-02T09:18:40.616Z,0.10
2022-09-02T09:21:11.026Z,0.00
2022-09-02T09:23:41.291Z,0.10
2022-09-02T09:26:13.982Z,0.10
2022-09-02T09:28:43.946Z,0.20
2022-09-02T09:31:15.181Z,0.15
2022-09-02T09:33:56.190Z,0.10
2022-09-02T09:36:41.702Z,0.20
2022-09-02T09:39:32.478Z,0.10
2022-09-02T09:42:10.429Z,0.00
2022-09-02T09:44:46.525Z,0.20
2022-09-02T09:47:19.810Z,0.10
2022-09-02T09:49:51.923Z,0.13
2022-09-02T09:52:30.729Z,0.10
2022-09-02T09:55:12.353Z,0.10
2022-09-02T09:57:41.895Z,0.17
2022-09-02T10:00:14.961Z,0.10
2022-09-02T10:02:50.984Z,0.20
2022-09-02T10:05:39.543Z,0.10
2022-09-02T10:08:23.768Z,0.13
2022-09-02T10:11:01.877Z,0.10
2022-09-02T10:13:32.830Z,0.03
2022-09-02T10:16:21.060Z,0.05
2022-09-02T10:18:56.577Z,0.10
2022-09-02T10:21:45.140Z,0.10
2022-09-02T10:24:44.039Z,0.20
2022-09-02T10:27:16.971Z,0.10
2022-09-02T10:30:14.104Z,0.30
2022-09-02T10:32:57.693Z,0.10
2022-09-02T10:35:41.740Z,0.20
2022-09-02T10:38:29.429Z,0.00
2022-09-02T10:41:37.957Z,0.15
2022-09-02T10:44:31.444Z,0.10
2022-09-02T10:47:17.977Z,0.10
2022-09-02T10:50:03.002Z,0.10
2022-09-02T10:52:45.592Z,0.10
2022-09-02T10:55:41.850Z,0.30
2022-09-02T10:58:39.704Z,0.10
2022-09-02T11:01:10.801Z,0.03
2022-09-02T11:03:43.992Z,0.20
2022-09-02T11:06:23.400Z,0.20
2022-09-02T11:09:09.974Z,0.17
2022-09-02T11:11:51.302Z,0.10
2022-09-02T11:14:26.836Z,0.10
2022-09-02T11:17:13.337Z,0.00
2022-09-02T11:19:55.869Z,0.10
2022-09-02T11:22:27.614Z,0.10
2022-09-02T11:24:57.761Z,0.17
2022-09-02T11:27:42.240Z,0.10
2022-09-02T11:30:15.334Z,0.05
2022-09-02T11:33:01.244Z,0.10
2022-09-02T11:35:33.268Z,0.25
2022-09-02T11:38:05.591Z,0.10
2022-09-02T11:40:39.192Z,0.10
2022-09-02T11:43:21.900Z,0.30
2022-09-02T11:46:04.072Z,0.20
2022-09-02T11:49:06.010Z,0.13
2022-09-02T11:52:07.408Z,0.20
2022-09-02T11:54:42.254Z,0.20
2022-09-02T11:57:20.572Z,0.10
2022-09-02T11:59:54.068Z,0.10
2022-09-02T12:02:41.341Z,0.10
2022-09-02T12:05:30.728Z,0.10
2022-09-02T12:08:06.751Z,0.10
2022-09-02T12:10:43.623Z,0.20
2022-09-02T12:13:32.301Z,0.20
2022-09-02T12:16:15.660Z,0.20
2022-09-02T12:18:45.049Z,0.22
2022-09-02T12:21:19.345Z,0.20
2022-09-02T12:23:53.861Z,0.20
2022-09-02T12:26:31.175Z,0.20
2022-09-02T12:29:32.566Z,0.30
2022-09-02T12:32:00.172Z,0.20
2022-09-02T12:34:28.744Z,0.30
2022-09-02T12:36:59.198Z,0.40
2022-09-02T12:39:27.516Z,0.20
2022-09-02T12:42:06.780Z,0.30
2022-09-02T12:45:11.627Z,0.30
2022-09-02T12:47:47.405Z,0.20
2022-09-02T12:50:20.983Z,0.22
2022-09-02T12:52:50.712Z,0.20
2022-09-02T12:55:30.607Z,0.17
2022-09-02T12:58:15.556Z,0.20
2022-09-02T13:01:17.468Z,0.43
2022-09-02T13:03:50.524Z,0.40
2022-09-02T13:06:42.552Z,0.30
2022-09-02T13:09:34.004Z,0.10
2022-09-02T13:12:03.986Z,0.20
2022-09-02T13:14:52.200Z,0.20
2022-09-02T13:18:10.127Z,0.15
2022-09-02T13:21:05.211Z,0.30
2022-09-02T13:23:51.165Z,0.20
2022-09-02T13:26:49.300Z,0.20
2022-09-02T13:29:32.119Z,0.25
2022-09-02T13:32:20.468Z,0.40
2022-09-02T13:34:50.290Z,0.13
2022-09-02T13:37:41.849Z,0.17
2022-09-02T13:40:25.147Z,0.30
2022-09-02T13:42:57.835Z,0.20
2022-09-02T13:45:27.448Z,0.20
2022-09-02T13:47:57.232Z,0.30
2022-09-02T13:50:28.181Z,0.20
2022-09-02T13:55:57.928Z,0.20
2022-09-02T13:58:31.408Z,0.20
2022-09-02T14:01:17.058Z,0.30
2022-09-02T14:03:52.206Z,0.20
2022-09-02T14:06:23.633Z,0.30
2022-09-02T14:08:58.638Z,0.50
2022-09-02T14:11:26.959Z,0.30
2022-09-02T14:13:55.025Z,0.30
2022-09-02T14:16:33.601Z,0.35
2022-09-02T14:19:04.787Z,0.20
2022-09-02T14:21:32.896Z,0.20
2022-09-02T14:24:00.168Z,0.35
2022-09-02T14:26:48.745Z,0.40
2022-09-02T14:29:18.001Z,0.35
2022-09-02T14:31:46.556Z,0.32
2022-09-02T14:34:34.902Z,0.20
2022-09-02T14:37:20.079Z,0.50
2022-09-02T14:40:03.653Z,0.40
2022-09-02T14:42:31.079Z,0.20
2022-09-02T14:45:03.071Z,0.32
2022-09-02T14:47:30.455Z,0.40
2022-09-02T14:49:57.728Z,1.20
2022-09-02T14:52:28.622Z,5.90
2022-09-02T14:54:57.960Z,7.90
2022-09-02T14:57:32.690Z,5.57
2022-09-02T15:00:01.462Z,1.73
2022-09-02T15:02:28.431Z,0.63
2022-09-02T15:04:57.498Z,0.70
2022-09-02T15:07:25.682Z,0.50
2022-09-02T15:09:53.101Z,0.50
2022-09-02T15:12:26.542Z,1.10
2022-09-02T15:14:54.118Z,2.75
2022-09-02T15:17:21.719Z,2.08
2022-09-02T15:19:49.239Z,0.70
2022-09-02T15:22:17.439Z,0.40
2022-09-02T15:24:45.198Z,0.77
2022-09-02T15:27:13.030Z,2.40
2022-09-02T15:29:40.191Z,0.60
2022-09-02T15:32:07.451Z,3.53
2022-09-02T15:34:35.016Z,1.30
2022-09-02T15:37:03.009Z,0.50
2022-09-02T15:39:30.752Z,0.20
2022-09-02T15:41:57.943Z,0.28
2022-09-02T15:44:26.304Z,0.20
2022-09-02T15:46:54.316Z,0.40
2022-09-02T15:49:23.870Z,0.22
2022-09-02T15:51:51.692Z,0.30
2022-09-02T15:54:24.068Z,0.30
2022-09-02T15:56:56.188Z,0.25
2022-09-02T15:59:23.571Z,0.15
2022-09-02T16:01:52.879Z,0.30
2022-09-02T16:04:20.156Z,0.28
2022-09-02T16:06:49.630Z,0.90
2022-09-02T16:09:18.624Z,0.57
2022-09-02T16:11:48.146Z,0.35
2022-09-02T16:14:15.583Z,0.30
2022-09-02T16:16:49.591Z,0.45
2022-09-02T16:19:21.141Z,0.30
2022-09-02T16:21:49.530Z,0.30
2022-09-02T16:24:18.184Z,0.50
2022-09-02T16:26:45.205Z,0.40
2022-09-02T16:29:14.208Z,0.30
2022-09-02T16:31:42.938Z,0.20
2022-09-02T16:34:17.610Z,0.40
2022-09-02T16:36:46.783Z,0.40
2022-09-02T16:39:15.440Z,0.30
2022-09-02T16:41:51.661Z,0.47
2022-09-02T16:44:23.470Z,0.40
2022-09-02T16:46:52.212Z,0.47
2022-09-02T16:49:21.060Z,0.52
2022-09-02T16:51:50.386Z,0.57
2022-09-02T16:54:30.591Z,0.38
2022-09-02T16:57:00.310Z,0.50
2022-09-02T16:59:27.714Z,0.40
2022-09-02T17:01:54.818Z,0.30
2022-09-02T17:04:22.024Z,0.50
2022-09-02T17:06:49.312Z,0.60
2022-09-02T17:09:16.867Z,0.40
2022-09-02T17:11:45.427Z,0.38
2022-09-02T17:14:17.996Z,0.47
2022-09-02T17:16:50.113Z,0.60
2022-09-02T17:19:22.482Z,0.55
2022-09-02T17:21:54.389Z,0.70
2022-09-02T17:24:24.247Z,0.47
2022-09-02T17:26:56.330Z,0.50
2022-09-02T17:29:48.006Z,0.55
2022-09-02T17:32:13.987Z,0.28
2022-09-02T17:34:41.553Z,0.80
2022-09-02T17:37:08.660Z,0.70
2022-09-02T17:39:35.670Z,0.70
2022-09-02T17:42:05.271Z,0.50
2022-09-02T17:44:37.517Z,0.60
2022-09-02T17:47:14.963Z,0.50
2022-09-02T17:49:44.522Z,0.50
2022-09-02T17:52:14.442Z,0.40
2022-09-02T17:54:41.955Z,0.40
2022-09-02T17:57:42.335Z,0.45
2022-09-02T18:00:15.511Z,0.57
2022-09-02T18:03:09.534Z,0.52
2022-09-02T18:06:02.468Z,0.52
2022-09-02T18:08:36.428Z,0.50
2022-09-02T18:11:06.825Z,0.40
2022-09-02T18:13:45.481Z,0.68
2022-09-02T18:16:30.678Z,0.60
2022-09-02T18:19:20.698Z,0.70
2022-09-02T18:21:50.685Z,0.50
2022-09-02T18:24:41.010Z,0.40
2022-09-02T18:27:24.047Z,0.60
2022-09-02T18:30:28.144Z,0.50
2022-09-02T18:33:04.704Z,0.93
2022-09-02T18:35:42.091Z,0.73
2022-09-02T18:38:28.624Z,0.63
2022-09-02T18:41:13.928Z,1.00
2022-09-02T18:43:41.047Z,0.80
2022-09-02T18:46:10.976Z,0.80
2022-09-02T18:48:39.306Z,1.00
2022-09-02T18:51:19.082Z,0.80
2022-09-02T18:53:51.123Z,0.90
2022-09-02T18:56:22.564Z,0.70
2022-09-02T18:59:12.926Z,0.90
2022-09-02T19:01:54.777Z,0.63
2022-09-02T19:04:29.262Z,0.90
2022-09-02T19:07:17.662Z,1.00
2022-09-02T19:09:44.807Z,0.80
2022-09-02T19:12:12.661Z,0.97
2022-09-02T19:14:41.217Z,0.80
2022-09-02T19:17:09.474Z,0.90
2022-09-02T19:19:36.517Z,0.87
2022-09-02T19:22:07.675Z,1.00
2022-09-02T19:24:42.784Z,1.00
2022-09-02T19:27:15.237Z,1.03
2022-09-02T19:29:49.950Z,0.93
2022-09-02T19:32:20.782Z,1.27
2022-09-02T19:34:47.848Z,1.13
2022-09-02T19:37:14.996Z,1.30
2022-09-02T19:39:42.557Z,1.20
2022-09-02T19:42:10.275Z,0.87
2022-09-02T19:44:40.276Z,1.03
2022-09-02T19:48:02.767Z,0.83
2022-09-02T19:49:56.816Z,0.90
2022-09-02T19:52:24.383Z,1.10
2022-09-02T19:54:51.393Z,1.37
2022-09-02T19:57:18.464Z,1.27
2022-09-02T19:59:45.449Z,1.47
2022-09-02T20:02:12.550Z,1.10
2022-09-02T20:04:39.559Z,1.13
2022-09-02T20:07:06.982Z,1.23
2022-09-02T20:09:34.014Z,0.90
2022-09-02T20:12:00.999Z,1.00
2022-09-02T20:14:28.220Z,1.00
2022-09-02T20:17:00.168Z,1.10
2022-09-02T20:19:27.586Z,1.37
2022-09-02T20:21:54.563Z,1.17
2022-09-02T20:24:27.616Z,1.27
2022-09-02T20:27:25.152Z,0.80
2022-09-02T20:30:04.997Z,0.90
2022-09-02T20:32:44.233Z,1.23
2022-09-02T20:35:21.464Z,1.00
2022-09-02T20:37:56.627Z,1.70
2022-09-02T20:40:37.748Z,1.27
2022-09-02T20:43:25.398Z,1.10
2022-09-02T20:46:06.647Z,1.35
2022-09-02T20:49:11.109Z,1.87
2022-09-02T20:52:02.748Z,1.73
2022-09-02T20:55:07.059Z,1.67
2022-09-02T20:57:42.998Z,1.00
2022-09-02T21:00:16.417Z,1.17
2022-09-02T21:03:05.432Z,0.90
2022-09-02T21:05:41.040Z,1.23
2022-09-02T21:08:22.266Z,1.20
2022-09-02T21:10:52.735Z,0.70
2022-09-02T21:13:37.499Z,0.95
2022-09-02T21:16:39.305Z,0.90
2022-09-02T21:19:27.901Z,0.90
2022-09-02T21:22:10.283Z,0.80
2022-09-02T21:25:02.107Z,0.88
2022-09-02T21:27:51.961Z,0.90
2022-09-02T21:30:25.224Z,0.80
2022-09-02T21:32:57.625Z,1.00
2022-09-02T21:35:47.678Z,1.10
2022-09-02T21:38:18.664Z,1.27
2022-09-02T21:40:57.271Z,1.43
2022-09-02T21:43:45.367Z,1.08
2022-09-02T21:46:45.320Z,0.85
2022-09-02T21:49:21.563Z,0.90
2022-09-02T21:52:15.116Z,1.00
2022-09-02T21:54:56.852Z,1.20
2022-09-02T21:57:52.264Z,1.10
2022-09-02T22:00:21.724Z,1.08
2022-09-02T22:03:03.970Z,0.80
2022-09-02T22:05:54.898Z,0.60
2022-09-02T22:08:44.717Z,0.70
2022-09-02T22:11:34.393Z,0.70
2022-09-02T22:14:39.096Z,0.82
2022-09-02T22:17:25.021Z,0.70
2022-09-02T22:19:59.304Z,0.60
2022-09-02T22:22:38.964Z,0.70
2022-09-02T22:25:15.195Z,0.70
2022-09-02T22:27:57.041Z,0.90
2022-09-02T22:30:24.096Z,0.98
2022-09-02T22:33:07.320Z,0.70
2022-09-02T22:35:57.004Z,0.80
2022-09-02T22:38:48.252Z,0.98
2022-09-02T22:41:25.286Z,0.95
2022-09-02T22:44:13.540Z,0.70
2022-09-02T22:47:26.392Z,0.93
2022-09-02T22:50:15.759Z,0.52
2022-09-02T22:52:49.287Z,0.60
2022-09-02T22:55:39.567Z,0.60
2022-09-02T22:58:21.352Z,0.70
2022-09-02T23:01:04.129Z,0.70
2022-09-02T23:03:45.461Z,0.70
2022-09-02T23:06:27.827Z,0.70
2022-09-02T23:08:55.510Z,0.82
2022-09-02T23:11:36.041Z,0.60
2022-09-02T23:14:29.155Z,0.60
2022-09-02T23:17:27.603Z,0.75
2022-09-02T23:20:06.699Z,0.68
2022-09-02T23:22:57.678Z,0.70
2022-09-02T23:25:34.456Z,0.73
2022-09-02T23:28:33.676Z,0.75
2022-09-02T23:31:18.664Z,0.70
2022-09-02T23:34:12.003Z,0.90
2022-09-02T23:37:04.824Z,0.70
2022-09-02T23:39:53.267Z,1.00
2022-09-02T23:42:21.210Z,0.85
2022-09-02T23:44:49.254Z,0.80
2022-09-02T23:47:40.680Z,1.05
2022-09-02T23:50:31.242Z,3.38
2022-09-02T23:53:09.123Z,2.20
2022-09-02T23:56:00.676Z,1.20
2022-09-02T23:58:46.478Z,0.88
